sensor_id;sensor_type;location;lat;lon;timestamp;pressure;altitude;pressure_sealevel;temperature;humidity
61870;BME280;47810;42.264;23.826;2022-12-19T00:00:46;95470.31;;;1.77;76.04
61870;BME280;47810;42.264;23.826;2022-12-19T00:03:12;95472.97;;;1.71;74.16
61870;BME280;47810;42.264;23.826;2022-12-19T00:05:38;95467.69;;;1.78;76.04
61870;BME280;47810;42.264;23.826;2022-12-19T00:08:05;95465.84;;;1.97;76.78
61870;BME280;47810;42.264;23.826;2022-12-19T00:10:31;95467.56;;;2.01;75.99
61870;BME280;47810;42.264;23.826;2022-12-19T00:12:56;95465.97;;;1.76;74.65
61870;BME280;47810;42.264;23.826;2022-12-19T00:15:21;95474.53;;;1.99;76.36
61870;BME280;47810;42.264;23.826;2022-12-19T00:17:47;95478.84;;;1.99;76.13
61870;BME280;47810;42.264;23.826;2022-12-19T00:20:13;95473.75;;;1.86;74.19
61870;BME280;47810;42.264;23.826;2022-12-19T00:22:38;95479.63;;;2.12;76.79
61870;BME280;47810;42.264;23.826;2022-12-19T00:25:04;95467.66;;;1.83;74.21
61870;BME280;47810;42.264;23.826;2022-12-19T00:27:34;95473.66;;;1.96;73.43
61870;BME280;47810;42.264;23.826;2022-12-19T00:29:59;95480.72;;;1.78;76.19
61870;BME280;47810;42.264;23.826;2022-12-19T00:32:25;95470.13;;;2.09;77.04
61870;BME280;47810;42.264;23.826;2022-12-19T00:34:50;95472.66;;;2.17;76.63
61870;BME280;47810;42.264;23.826;2022-12-19T00:37:16;95484.81;;;2.15;74.46
61870;BME280;47810;42.264;23.826;2022-12-19T00:39:41;95484.88;;;2.08;74.89
61870;BME280;47810;42.264;23.826;2022-12-19T00:42:07;95486.66;;;1.99;73.85
61870;BME280;47810;42.264;23.826;2022-12-19T00:44:33;95488.47;;;1.86;74.52
61870;BME280;47810;42.264;23.826;2022-12-19T00:46:58;95497.22;;;1.76;75.67
61870;BME280;47810;42.264;23.826;2022-12-19T00:49:24;95484.97;;;1.93;76.17
61870;BME280;47810;42.264;23.826;2022-12-19T00:51:49;95483.16;;;2.09;76.77
61870;BME280;47810;42.264;23.826;2022-12-19T00:54:15;95479.66;;;2.05;75.83
61870;BME280;47810;42.264;23.826;2022-12-19T00:56:41;95479.66;;;2.10;76.46
61870;BME280;47810;42.264;23.826;2022-12-19T00:59:06;95478.69;;;2.25;76.26
61870;BME280;47810;42.264;23.826;2022-12-19T01:01:34;95486.53;;;2.25;75.16
61870;BME280;47810;42.264;23.826;2022-12-19T01:04:00;95483.06;;;2.20;75.69
61870;BME280;47810;42.264;23.826;2022-12-19T01:06:26;95476.97;;;2.21;75.92
61870;BME280;47810;42.264;23.826;2022-12-19T01:08:52;95477.84;;;2.20;76.25
61870;BME280;47810;42.264;23.826;2022-12-19T01:11:17;95484.72;;;2.30;75.20
61870;BME280;47810;42.264;23.826;2022-12-19T01:14:03;95485.75;;;2.12;75.35
61870;BME280;47810;42.264;23.826;2022-12-19T01:16:28;95481.38;;;2.13;76.25
61870;BME280;47810;42.264;23.826;2022-12-19T01:18:54;95481.38;;;2.14;76.08
61870;BME280;47810;42.264;23.826;2022-12-19T01:21:19;95481.31;;;2.22;76.24
61870;BME280;47810;42.264;23.826;2022-12-19T01:23:45;95477.81;;;2.26;76.11
61870;BME280;47810;42.264;23.826;2022-12-19T01:26:10;95484.81;;;2.18;75.38
61870;BME280;47810;42.264;23.826;2022-12-19T01:28:36;95490.06;;;2.12;75.44
61870;BME280;47810;42.264;23.826;2022-12-19T01:31:04;95484.81;;;2.18;75.55
61870;BME280;47810;42.264;23.826;2022-12-19T01:33:29;95489.19;;;2.11;76.23
61870;BME280;47810;42.264;23.826;2022-12-19T01:35:55;95488.31;;;2.14;76.52
61870;BME280;47810;42.264;23.826;2022-12-19T01:38:20;95487.41;;;2.19;75.78
61870;BME280;47810;42.264;23.826;2022-12-19T01:40:54;95483.16;;;2.07;74.64
61870;BME280;47810;42.264;23.826;2022-12-19T01:43:20;95490.28;;;1.78;75.98
61870;BME280;47810;42.264;23.826;2022-12-19T01:45:46;95497.28;;;1.65;76.22
61870;BME280;47810;42.264;23.826;2022-12-19T01:53:25;95496.53;;;1.32;75.57
61870;BME280;47810;42.264;23.826;2022-12-19T01:55:52;95506.91;;;1.43;76.07
61870;BME280;47810;42.264;23.826;2022-12-19T01:58:18;95502.59;;;1.33;76.56
61870;BME280;47810;42.264;23.826;2022-12-19T02:00:44;95511.19;;;1.53;77.23
61870;BME280;47810;42.264;23.826;2022-12-19T02:03:21;95499.09;;;1.46;76.34
61870;BME280;47810;42.264;23.826;2022-12-19T02:05:48;95501.69;;;1.46;76.25
61870;BME280;47810;42.264;23.826;2022-12-19T02:08:15;95503.41;;;1.47;77.01
61870;BME280;47810;42.264;23.826;2022-12-19T02:10:41;95493.81;;;1.65;77.80
61870;BME280;47810;42.264;23.826;2022-12-19T02:13:07;95500.72;;;1.69;76.90
61870;BME280;47810;42.264;23.826;2022-12-19T02:15:43;95494.59;;;1.83;75.46
61870;BME280;47810;42.264;23.826;2022-12-19T02:36:28;95493.69;;;1.86;77.20
61870;BME280;47810;42.264;23.826;2022-12-19T02:38:51;95506.72;;;1.83;76.92
61870;BME280;47810;42.264;23.826;2022-12-19T02:41:22;95498.84;;;1.95;77.26
61870;BME280;47810;42.264;23.826;2022-12-19T02:43:50;95493.66;;;1.92;77.29
61870;BME280;47810;42.264;23.826;2022-12-19T02:46:17;95495.41;;;1.90;76.82
61870;BME280;47810;42.264;23.826;2022-12-19T02:48:43;95492.81;;;1.87;77.07
61870;BME280;47810;42.264;23.826;2022-12-19T02:51:09;95502.34;;;1.91;76.86
61870;BME280;47810;42.264;23.826;2022-12-19T02:53:35;95509.31;;;1.86;76.92
61870;BME280;47810;42.264;23.826;2022-12-19T03:00:58;95499.00;;;1.68;77.38
61870;BME280;47810;42.264;23.826;2022-12-19T03:08:57;95513.75;;;1.66;77.83
61870;BME280;47810;42.264;23.826;2022-12-19T03:11:26;95524.19;;;1.59;78.20
61870;BME280;47810;42.264;23.826;2022-12-19T03:13:57;95523.34;;;1.54;78.13
61870;BME280;47810;42.264;23.826;2022-12-19T03:16:24;95531.16;;;1.54;78.49
61870;BME280;47810;42.264;23.826;2022-12-19T03:18:51;95532.03;;;1.50;78.59
61870;BME280;47810;42.264;23.826;2022-12-19T03:23:43;95528.59;;;1.45;79.22
61870;BME280;47810;42.264;23.826;2022-12-19T03:26:11;95534.66;;;1.44;79.49
61870;BME280;47810;42.264;23.826;2022-12-19T03:31:11;95531.19;;;1.51;79.75
61870;BME280;47810;42.264;23.826;2022-12-19T03:33:38;95525.97;;;1.48;79.55
61870;BME280;47810;42.264;23.826;2022-12-19T03:36:06;95530.31;;;1.49;79.97
61870;BME280;47810;42.264;23.826;2022-12-19T03:38:34;95531.16;;;1.53;79.52
61870;BME280;47810;42.264;23.826;2022-12-19T03:41:01;95530.28;;;1.55;79.77
61870;BME280;47810;42.264;23.826;2022-12-19T03:43:27;95525.91;;;1.63;79.57
61870;BME280;47810;42.264;23.826;2022-12-19T03:46:01;95521.53;;;1.75;77.91
61870;BME280;47810;42.264;23.826;2022-12-19T03:51:00;95520.78;;;1.51;79.20
61870;BME280;47810;42.264;23.826;2022-12-19T03:55:54;95519.03;;;1.44;79.44
61870;BME280;47810;42.264;23.826;2022-12-19T03:58:31;95522.53;;;1.37;79.57
61870;BME280;47810;42.264;23.826;2022-12-19T04:00:58;95527.75;;;1.32;79.98
61870;BME280;47810;42.264;23.826;2022-12-19T04:03:25;95526.00;;;1.34;79.81
61870;BME280;47810;42.264;23.826;2022-12-19T04:05:51;95537.25;;;1.41;79.36
61870;BME280;47810;42.264;23.826;2022-12-19T04:08:18;95533.78;;;1.45;78.93
61870;BME280;47810;42.264;23.826;2022-12-19T04:10:47;95535.53;;;1.46;79.32
61870;BME280;47810;42.264;23.826;2022-12-19T04:13:17;95546.81;;;1.48;79.17
61870;BME280;47810;42.264;23.826;2022-12-19T04:15:53;95554.59;;;1.51;79.33
61870;BME280;47810;42.264;23.826;2022-12-19T04:18:21;95549.41;;;1.48;79.26
61870;BME280;47810;42.264;23.826;2022-12-19T04:20:51;95549.41;;;1.48;79.33
61870;BME280;47810;42.264;23.826;2022-12-19T04:23:25;95557.22;;;1.44;79.88
61870;BME280;47810;42.264;23.826;2022-12-19T04:25:54;95560.69;;;1.46;79.70
61870;BME280;47810;42.264;23.826;2022-12-19T04:28:24;95567.59;;;1.47;78.81
61870;BME280;47810;42.264;23.826;2022-12-19T04:30:51;95564.19;;;1.35;79.53
61870;BME280;47810;42.264;23.826;2022-12-19T04:33:17;95570.22;;;1.45;78.19
61870;BME280;47810;42.264;23.826;2022-12-19T04:35:43;95570.22;;;1.48;78.07
61870;BME280;47810;42.264;23.826;2022-12-19T04:38:08;95572.84;;;1.36;79.54
61870;BME280;47810;42.264;23.826;2022-12-19T04:40:34;95573.69;;;1.44;79.77
61870;BME280;47810;42.264;23.826;2022-12-19T04:43:00;95571.94;;;1.46;79.92
61870;BME280;47810;42.264;23.826;2022-12-19T04:45:25;95573.69;;;1.41;79.07
61870;BME280;47810;42.264;23.826;2022-12-19T04:47:51;95562.50;;;1.16;79.25
61870;BME280;47810;42.264;23.826;2022-12-19T04:50:16;95566.84;;;0.88;80.31
61870;BME280;47810;42.264;23.826;2022-12-19T04:52:42;95567.69;;;1.04;79.87
61870;BME280;47810;42.264;23.826;2022-12-19T04:55:08;95572.88;;;1.24;80.67
61870;BME280;47810;42.264;23.826;2022-12-19T04:57:34;95577.19;;;1.22;80.98
61870;BME280;47810;42.264;23.826;2022-12-19T04:59:59;95582.31;;;1.61;78.76
61870;BME280;47810;42.264;23.826;2022-12-19T05:02:28;95593.66;;;1.31;78.80
61870;BME280;47810;42.264;23.826;2022-12-19T05:04:53;95591.97;;;1.29;79.13
61870;BME280;47810;42.264;23.826;2022-12-19T05:07:19;95589.38;;;1.16;80.00
61870;BME280;47810;42.264;23.826;2022-12-19T05:09:44;95588.47;;;1.36;79.97
61870;BME280;47810;42.264;23.826;2022-12-19T05:12:10;95592.78;;;1.48;79.15
61870;BME280;47810;42.264;23.826;2022-12-19T05:14:36;95592.75;;;1.52;78.88
61870;BME280;47810;42.264;23.826;2022-12-19T05:17:01;95597.09;;;1.47;79.22
61870;BME280;47810;42.264;23.826;2022-12-19T05:19:27;95592.78;;;1.43;80.08
61870;BME280;47810;42.264;23.826;2022-12-19T05:21:52;95589.28;;;1.53;78.99
61870;BME280;47810;42.264;23.826;2022-12-19T05:24:18;95595.38;;;1.43;78.31
61870;BME280;47810;42.264;23.826;2022-12-19T05:26:44;95596.28;;;1.33;79.40
61870;BME280;47810;42.264;23.826;2022-12-19T05:29:09;95596.25;;;1.45;78.02
61870;BME280;47810;42.264;23.826;2022-12-19T05:31:35;95604.91;;;1.53;77.55
61870;BME280;47810;42.264;23.826;2022-12-19T05:34:01;95597.91;;;1.77;74.24
61870;BME280;47810;42.264;23.826;2022-12-19T05:36:26;95604.84;;;1.78;73.67
61870;BME280;47810;42.264;23.826;2022-12-19T05:38:52;95604.91;;;1.41;75.78
61870;BME280;47810;42.264;23.826;2022-12-19T05:41:18;95610.16;;;1.35;77.58
61870;BME280;47810;42.264;23.826;2022-12-19T05:43:47;95600.63;;;1.20;78.25
61870;BME280;47810;42.264;23.826;2022-12-19T05:46:13;95615.38;;;1.20;78.79
61870;BME280;47810;42.264;23.826;2022-12-19T05:48:40;95621.44;;;1.26;78.77
61870;BME280;47810;42.264;23.826;2022-12-19T05:51:05;95623.19;;;1.26;76.88
61870;BME280;47810;42.264;23.826;2022-12-19T05:53:33;95627.50;;;1.21;77.37
61870;BME280;47810;42.264;23.826;2022-12-19T05:56:06;95625.78;;;0.89;77.40
61870;BME280;47810;42.264;23.826;2022-12-19T05:58:32;95622.31;;;1.05;78.52
61870;BME280;47810;42.264;23.826;2022-12-19T06:01:08;95622.31;;;1.21;79.00
61870;BME280;47810;42.264;23.826;2022-12-19T06:03:35;95620.56;;;1.21;78.89
61870;BME280;47810;42.264;23.826;2022-12-19T06:06:01;95617.97;;;1.30;79.17
61870;BME280;47810;42.264;23.826;2022-12-19T06:08:27;95614.50;;;1.36;79.51
61870;BME280;47810;42.264;23.826;2022-12-19T06:10:52;95622.28;;;1.36;79.04
61870;BME280;47810;42.264;23.826;2022-12-19T06:13:18;95616.22;;;1.31;79.40
61870;BME280;47810;42.264;23.826;2022-12-19T06:15:43;95622.28;;;1.30;79.74
61870;BME280;47810;42.264;23.826;2022-12-19T06:18:09;95624.03;;;1.28;79.99
61870;BME280;47810;42.264;23.826;2022-12-19T06:20:34;95620.59;;;1.20;80.11
61870;BME280;47810;42.264;23.826;2022-12-19T06:23:00;95632.72;;;1.11;80.08
61870;BME280;47810;42.264;23.826;2022-12-19T06:25:28;95637.06;;;1.06;80.82
61870;BME280;47810;42.264;23.826;2022-12-19T06:27:54;95644.84;;;1.11;80.77
61870;BME280;47810;42.264;23.826;2022-12-19T06:30:19;95645.72;;;1.07;81.04
61870;BME280;47810;42.264;23.826;2022-12-19T06:32:45;95642.25;;;1.06;81.33
61870;BME280;47810;42.264;23.826;2022-12-19T06:35:10;95648.31;;;1.08;81.40
61870;BME280;47810;42.264;23.826;2022-12-19T06:37:36;95650.06;;;1.11;81.12
61870;BME280;47810;42.264;23.826;2022-12-19T06:40:02;95655.28;;;1.06;81.37
61870;BME280;47810;42.264;23.826;2022-12-19T06:42:27;95662.16;;;0.86;82.04
61870;BME280;47810;42.264;23.826;2022-12-19T06:44:53;95664.78;;;0.83;82.29
61870;BME280;47810;42.264;23.826;2022-12-19T06:47:19;95667.38;;;0.86;82.49
61870;BME280;47810;42.264;23.826;2022-12-19T06:49:46;95669.13;;;0.81;82.92
61870;BME280;47810;42.264;23.826;2022-12-19T06:52:15;95671.72;;;1.05;82.54
61870;BME280;47810;42.264;23.826;2022-12-19T06:54:40;95670.88;;;1.00;82.45
61870;BME280;47810;42.264;23.826;2022-12-19T06:57:06;95681.28;;;0.97;82.75
61870;BME280;47810;42.264;23.826;2022-12-19T06:59:32;95673.47;;;1.02;82.99
61870;BME280;47810;42.264;23.826;2022-12-19T07:02:16;95659.59;;;1.16;82.76
61870;BME280;47810;42.264;23.826;2022-12-19T07:04:46;95666.53;;;1.27;82.16
61870;BME280;47810;42.264;23.826;2022-12-19T07:07:12;95668.25;;;1.15;82.61
61870;BME280;47810;42.264;23.826;2022-12-19T07:09:38;95671.75;;;1.13;82.74
61870;BME280;47810;42.264;23.826;2022-12-19T07:12:04;95673.47;;;1.20;82.54
61870;BME280;47810;42.264;23.826;2022-12-19T07:14:29;95667.41;;;1.23;82.51
61870;BME280;47810;42.264;23.826;2022-12-19T07:16:56;95675.22;;;1.20;82.47
61870;BME280;47810;42.264;23.826;2022-12-19T07:19:22;95681.25;;;1.25;82.57
61870;BME280;47810;42.264;23.826;2022-12-19T07:21:47;95683.88;;;1.26;82.36
61870;BME280;47810;42.264;23.826;2022-12-19T07:24:13;95686.47;;;1.19;82.61
61870;BME280;47810;42.264;23.826;2022-12-19T07:26:40;95689.94;;;1.17;83.24
61870;BME280;47810;42.264;23.826;2022-12-19T07:29:05;95689.06;;;1.14;83.39
61870;BME280;47810;42.264;23.826;2022-12-19T07:31:32;95691.69;;;1.12;83.16
61870;BME280;47810;42.264;23.826;2022-12-19T07:33:57;95702.94;;;1.11;83.24
61870;BME280;47810;42.264;23.826;2022-12-19T07:36:23;95689.06;;;1.22;83.46
61870;BME280;47810;42.264;23.826;2022-12-19T07:38:48;95696.88;;;1.06;83.75
61870;BME280;47810;42.264;23.826;2022-12-19T07:41:15;95685.59;;;1.15;83.75
61870;BME280;47810;42.264;23.826;2022-12-19T07:43:40;95700.34;;;1.17;83.89
61870;BME280;47810;42.264;23.826;2022-12-19T07:46:06;95693.44;;;1.26;83.79
61870;BME280;47810;42.264;23.826;2022-12-19T07:48:32;95697.75;;;1.24;83.64
61870;BME280;47810;42.264;23.826;2022-12-19T07:50:57;95695.16;;;1.24;83.65
61870;BME280;47810;42.264;23.826;2022-12-19T07:53:23;95696.00;;;1.18;83.85
61870;BME280;47810;42.264;23.826;2022-12-19T07:55:51;95695.13;;;1.11;83.88
61870;BME280;47810;42.264;23.826;2022-12-19T07:58:18;95700.34;;;1.17;84.15
61870;BME280;47810;42.264;23.826;2022-12-19T08:01:02;95717.69;;;1.25;84.09
61870;BME280;47810;42.264;23.826;2022-12-19T08:03:28;95709.03;;;1.32;83.70
61870;BME280;47810;42.264;23.826;2022-12-19T08:05:59;95709.88;;;1.19;83.84
61870;BME280;47810;42.264;23.826;2022-12-19T08:08:25;95715.97;;;1.33;84.26
61870;BME280;47810;42.264;23.826;2022-12-19T08:10:51;95715.94;;;1.28;83.93
61870;BME280;47810;42.264;23.826;2022-12-19T08:13:16;95724.63;;;1.20;84.18
61870;BME280;47810;42.264;23.826;2022-12-19T08:15:42;95722.03;;;1.23;84.51
61870;BME280;47810;42.264;23.826;2022-12-19T08:18:07;95732.47;;;1.29;84.20
61870;BME280;47810;42.264;23.826;2022-12-19T08:20:33;95729.84;;;1.32;83.83
61870;BME280;47810;42.264;23.826;2022-12-19T08:22:58;95739.38;;;1.28;84.01
61870;BME280;47810;42.264;23.826;2022-12-19T08:25:24;95740.25;;;1.29;84.12
61870;BME280;47810;42.264;23.826;2022-12-19T08:27:50;95739.38;;;1.25;83.72
61870;BME280;47810;42.264;23.826;2022-12-19T08:30:16;95751.53;;;1.35;83.69
61870;BME280;47810;42.264;23.826;2022-12-19T08:32:41;95741.97;;;1.27;83.95
61870;BME280;47810;42.264;23.826;2022-12-19T08:35:08;95741.97;;;1.27;83.96
61870;BME280;47810;42.264;23.826;2022-12-19T08:37:34;95740.25;;;1.32;84.29
61870;BME280;47810;42.264;23.826;2022-12-19T08:39:59;95742.00;;;1.30;83.92
61870;BME280;47810;42.264;23.826;2022-12-19T08:42:25;95747.16;;;1.11;84.56
61870;BME280;47810;42.264;23.826;2022-12-19T08:44:50;95755.00;;;1.27;84.55
61870;BME280;47810;42.264;23.826;2022-12-19T08:47:16;95755.00;;;1.45;84.05
61870;BME280;47810;42.264;23.826;2022-12-19T08:49:41;95742.00;;;1.36;84.57
61870;BME280;47810;42.264;23.826;2022-12-19T08:52:07;95742.00;;;1.30;84.66
61870;BME280;47810;42.264;23.826;2022-12-19T08:54:33;95738.53;;;1.43;84.79
61870;BME280;47810;42.264;23.826;2022-12-19T08:56:58;95741.13;;;1.35;84.66
61870;BME280;47810;42.264;23.826;2022-12-19T08:59:24;95740.25;;;1.38;84.88
61870;BME280;47810;42.264;23.826;2022-12-19T09:01:49;95735.06;;;1.29;84.58
61870;BME280;47810;42.264;23.826;2022-12-19T09:04:15;95729.84;;;1.41;84.47
61870;BME280;47810;42.264;23.826;2022-12-19T09:06:40;95732.44;;;1.44;84.60
61870;BME280;47810;42.264;23.826;2022-12-19T09:09:06;95731.59;;;1.42;84.18
61870;BME280;47810;42.264;23.826;2022-12-19T09:11:32;95729.84;;;1.47;84.11
61870;BME280;47810;42.264;23.826;2022-12-19T09:13:57;95728.09;;;1.40;84.53
61870;BME280;47810;42.264;23.826;2022-12-19T09:16:23;95720.31;;;1.43;84.14
61870;BME280;47810;42.264;23.826;2022-12-19T09:18:50;95727.25;;;1.49;84.08
61870;BME280;47810;42.264;23.826;2022-12-19T09:21:16;95723.78;;;1.51;83.54
61870;BME280;47810;42.264;23.826;2022-12-19T09:23:45;95717.69;;;1.43;83.96
61870;BME280;47810;42.264;23.826;2022-12-19T09:26:11;95718.56;;;1.50;83.74
61870;BME280;47810;42.264;23.826;2022-12-19T09:28:38;95719.44;;;1.46;84.24
61870;BME280;47810;42.264;23.826;2022-12-19T09:31:04;95714.22;;;1.44;84.15
61870;BME280;47810;42.264;23.826;2022-12-19T09:33:31;95715.94;;;1.37;83.85
61870;BME280;47810;42.264;23.826;2022-12-19T09:35:57;95711.66;;;1.35;84.30
61870;BME280;47810;42.264;23.826;2022-12-19T09:38:24;95712.50;;;1.37;84.42
61870;BME280;47810;42.264;23.826;2022-12-19T09:48:25;95697.75;;;1.54;84.37
61870;BME280;47810;42.264;23.826;2022-12-19T09:53:32;95700.34;;;1.45;84.43
61870;BME280;47810;42.264;23.826;2022-12-19T09:56:00;95692.53;;;1.50;84.15
61870;BME280;47810;42.264;23.826;2022-12-19T09:58:36;95683.00;;;1.38;84.52
61870;BME280;47810;42.264;23.826;2022-12-19T10:01:07;95681.25;;;1.37;85.31
61870;BME280;47810;42.264;23.826;2022-12-19T10:03:42;95677.78;;;1.41;85.16
61870;BME280;47810;42.264;23.826;2022-12-19T10:08:38;95659.56;;;1.50;84.40
61870;BME280;47810;42.264;23.826;2022-12-19T10:16:06;95656.97;;;1.50;84.72
61870;BME280;47810;42.264;23.826;2022-12-19T10:18:44;95648.28;;;1.47;84.76
61870;BME280;47810;42.264;23.826;2022-12-19T10:21:20;95646.56;;;1.44;84.57
61870;BME280;47810;42.264;23.826;2022-12-19T10:26:40;95643.09;;;1.39;85.39
61870;BME280;47810;42.264;23.826;2022-12-19T10:29:13;95639.66;;;1.38;85.75
61870;BME280;47810;42.264;23.826;2022-12-19T10:34:15;95641.38;;;1.32;85.28
61870;BME280;47810;42.264;23.826;2022-12-19T10:36:44;95649.19;;;1.33;85.66
61870;BME280;47810;42.264;23.826;2022-12-19T10:41:44;95640.50;;;1.33;85.43
61870;BME280;47810;42.264;23.826;2022-12-19T10:44:13;95640.50;;;1.31;85.33
61870;BME280;47810;42.264;23.826;2022-12-19T10:49:15;95644.00;;;1.35;85.90
61870;BME280;47810;42.264;23.826;2022-12-19T10:51:41;95638.75;;;1.36;85.47
61870;BME280;47810;42.264;23.826;2022-12-19T10:54:07;95635.31;;;1.27;85.57
61870;BME280;47810;42.264;23.826;2022-12-19T10:56:33;95634.41;;;1.46;85.26
61870;BME280;47810;42.264;23.826;2022-12-19T10:58:59;95630.09;;;1.36;84.75
61870;BME280;47810;42.264;23.826;2022-12-19T11:01:37;95631.84;;;1.35;85.07
61870;BME280;47810;42.264;23.826;2022-12-19T11:06:51;95610.16;;;1.32;83.54
61870;BME280;47810;42.264;23.826;2022-12-19T11:11:46;95616.22;;;1.28;83.15
61870;BME280;47810;42.264;23.826;2022-12-19T11:14:22;95611.88;;;1.33;83.94
61870;BME280;47810;42.264;23.826;2022-12-19T11:16:48;95613.63;;;1.45;82.95
61870;BME280;47810;42.264;23.826;2022-12-19T11:21:46;95611.00;;;1.45;82.05
61870;BME280;47810;42.264;23.826;2022-12-19T11:24:17;95617.94;;;1.39;83.02
61870;BME280;47810;42.264;23.826;2022-12-19T11:26:47;95607.50;;;1.44;82.45
61870;BME280;47810;42.264;23.826;2022-12-19T11:29:25;95601.47;;;1.42;82.42
61870;BME280;47810;42.264;23.826;2022-12-19T11:32:00;95603.19;;;1.46;82.02
61870;BME280;47810;42.264;23.826;2022-12-19T11:34:28;95605.81;;;1.45;82.33
61870;BME280;47810;42.264;23.826;2022-12-19T11:36:59;95591.06;;;1.42;82.59
61870;BME280;47810;42.264;23.826;2022-12-19T11:42:16;95596.25;;;1.51;82.17
61870;BME280;47810;42.264;23.826;2022-12-19T11:49:47;95598.78;;;1.74;80.71
61870;BME280;47810;42.264;23.826;2022-12-19T11:57:45;95600.59;;;1.46;81.49
61870;BME280;47810;42.264;23.826;2022-12-19T12:00:16;95604.91;;;1.38;81.24
61870;BME280;47810;42.264;23.826;2022-12-19T12:07:37;95617.06;;;1.37;82.01
61870;BME280;47810;42.264;23.826;2022-12-19T12:15:24;95619.69;;;1.36;81.45
61870;BME280;47810;42.264;23.826;2022-12-19T12:20:25;95620.56;;;1.35;80.96
61870;BME280;47810;42.264;23.826;2022-12-19T12:23:02;95620.56;;;1.32;80.69
61870;BME280;47810;42.264;23.826;2022-12-19T12:28:00;95626.63;;;1.22;79.14
61870;BME280;47810;42.264;23.826;2022-12-19T12:30:33;95625.78;;;1.10;78.85
61870;BME280;47810;42.264;23.826;2022-12-19T12:35:44;95620.59;;;1.16;79.53
61870;BME280;47810;42.264;23.826;2022-12-19T12:41:08;95629.22;;;1.19;79.22
61870;BME280;47810;42.264;23.826;2022-12-19T12:46:19;95634.44;;;1.15;79.63
61870;BME280;47810;42.264;23.826;2022-12-19T12:48:52;95627.53;;;1.22;79.67
61870;BME280;47810;42.264;23.826;2022-12-19T12:51:20;95636.19;;;1.23;80.35
61870;BME280;47810;42.264;23.826;2022-12-19T12:53:46;95636.19;;;1.29;80.40
61870;BME280;47810;42.264;23.826;2022-12-19T12:56:13;95635.31;;;1.22;80.67
61870;BME280;47810;42.264;23.826;2022-12-19T13:06:35;95650.03;;;1.31;80.25
61870;BME280;47810;42.264;23.826;2022-12-19T13:19:31;95649.19;;;1.27;78.76
61870;BME280;47810;42.264;23.826;2022-12-19T13:29:49;95644.84;;;1.25;77.96
61870;BME280;47810;42.264;23.826;2022-12-19T13:32:18;95637.91;;;1.33;77.97
61870;BME280;47810;42.264;23.826;2022-12-19T13:34:51;95642.22;;;1.31;77.43
61870;BME280;47810;42.264;23.826;2022-12-19T13:37:59;95645.72;;;1.27;78.35
61870;BME280;47810;42.264;23.826;2022-12-19T13:45:38;95633.56;;;1.24;76.41
61870;BME280;47810;42.264;23.826;2022-12-19T13:48:11;95648.34;;;1.22;76.02
61870;BME280;47810;42.264;23.826;2022-12-19T13:50:39;95658.72;;;1.27;76.44
61870;BME280;47810;42.264;23.826;2022-12-19T13:53:13;95643.97;;;1.21;76.80
61870;BME280;47810;42.264;23.826;2022-12-19T13:55:39;95662.19;;;1.26;76.07
61870;BME280;47810;42.264;23.826;2022-12-19T13:58:05;95657.88;;;1.12;76.60
61870;BME280;47810;42.264;23.826;2022-12-19T14:00:33;95654.38;;;1.24;76.38
61870;BME280;47810;42.264;23.826;2022-12-19T14:02:59;95654.41;;;1.23;76.90
61870;BME280;47810;42.264;23.826;2022-12-19T14:05:30;95655.25;;;1.25;76.61
61870;BME280;47810;42.264;23.826;2022-12-19T14:07:56;95663.94;;;1.14;77.35
61870;BME280;47810;42.264;23.826;2022-12-19T14:10:32;95660.47;;;1.06;78.09
61870;BME280;47810;42.264;23.826;2022-12-19T14:12:59;95679.53;;;1.08;77.74
61870;BME280;47810;42.264;23.826;2022-12-19T14:15:46;95674.31;;;1.05;77.29
61870;BME280;47810;42.264;23.826;2022-12-19T14:18:22;95677.78;;;1.04;78.03
61870;BME280;47810;42.264;23.826;2022-12-19T14:20:48;95684.75;;;1.21;76.92
61870;BME280;47810;42.264;23.826;2022-12-19T14:23:14;95679.56;;;1.16;76.51
61870;BME280;47810;42.264;23.826;2022-12-19T14:25:41;95675.19;;;1.09;76.95
61870;BME280;47810;42.264;23.826;2022-12-19T14:28:10;95674.34;;;1.14;76.48
61870;BME280;47810;42.264;23.826;2022-12-19T14:30:37;95674.34;;;1.21;77.45
61870;BME280;47810;42.264;23.826;2022-12-19T14:33:10;95672.59;;;1.23;77.25
61870;BME280;47810;42.264;23.826;2022-12-19T14:35:39;95676.06;;;1.28;75.60
61870;BME280;47810;42.264;23.826;2022-12-19T14:38:11;95687.31;;;1.25;75.48
61870;BME280;47810;42.264;23.826;2022-12-19T14:40:39;95675.19;;;1.21;75.67
61870;BME280;47810;42.264;23.826;2022-12-19T14:45:52;95681.28;;;1.09;75.59
61870;BME280;47810;42.264;23.826;2022-12-19T14:48:34;95696.00;;;1.09;76.60
61870;BME280;47810;42.264;23.826;2022-12-19T14:51:10;95686.50;;;1.12;75.36
61870;BME280;47810;42.264;23.826;2022-12-19T14:53:37;95672.59;;;1.07;76.28
61870;BME280;47810;42.264;23.826;2022-12-19T14:56:10;95674.34;;;1.14;76.40
61870;BME280;47810;42.264;23.826;2022-12-19T14:58:38;95676.06;;;1.20;76.04
61870;BME280;47810;42.264;23.826;2022-12-19T15:01:05;95679.53;;;1.08;76.88
61870;BME280;47810;42.264;23.826;2022-12-19T15:03:45;95674.31;;;1.11;77.04
61870;BME280;47810;42.264;23.826;2022-12-19T15:06:14;95676.06;;;1.08;77.26
61870;BME280;47810;42.264;23.826;2022-12-19T15:08:41;95676.09;;;1.06;76.88
61870;BME280;47810;42.264;23.826;2022-12-19T15:11:22;95666.53;;;1.07;76.96
61870;BME280;47810;42.264;23.826;2022-12-19T15:14:22;95678.66;;;0.99;76.49
61870;BME280;47810;42.264;23.826;2022-12-19T15:16:48;95670.00;;;0.93;76.87
61870;BME280;47810;42.264;23.826;2022-12-19T15:19:24;95673.47;;;0.91;77.39
61870;BME280;47810;42.264;23.826;2022-12-19T15:21:50;95663.94;;;0.90;77.06
61870;BME280;47810;42.264;23.826;2022-12-19T15:24:15;95674.31;;;0.93;77.55
61870;BME280;47810;42.264;23.826;2022-12-19T15:26:49;95669.09;;;0.82;77.98
61870;BME280;47810;42.264;23.826;2022-12-19T15:29:14;95674.34;;;0.87;78.03
61870;BME280;47810;42.264;23.826;2022-12-19T15:31:41;95675.19;;;0.84;78.27
61870;BME280;47810;42.264;23.826;2022-12-19T15:34:26;95674.34;;;0.90;78.26